createdAt,value
2022-11-19T00:01:04.945Z,26.96
2022-11-19T00:04:09.149Z,27.10
2022-11-19T00:07:13.024Z,27.33
2022-11-19T00:10:16.747Z,27.44
2022-11-19T00:13:21.769Z,27.53
2022-11-19T00:16:25.058Z,27.63
2022-11-19T00:19:28.981Z,27.78
2022-11-19T00:22:32.132Z,27.82
2022-11-19T00:25:35.815Z,27.98
2022-11-19T00:28:41.781Z,28.16
2022-11-19T00:31:45.818Z,28.24
2022-11-19T00:34:49.145Z,28.32
2022-11-19T00:37:52.723Z,28.39
2022-11-19T00:40:55.922Z,28.44
2022-11-19T00:44:00.917Z,28.49
2022-11-19T00:47:04.506Z,28.49
2022-11-19T00:50:09.756Z,28.52
2022-11-19T00:53:13.031Z,28.52
2022-11-19T00:56:21.992Z,28.56
2022-11-19T00:59:26.825Z,28.57
2022-11-19T01:02:30.726Z,28.61
2022-11-19T01:05:34.671Z,28.60
2022-11-19T01:08:38.886Z,28.57
2022-11-19T01:11:42.453Z,28.60
2022-11-19T01:14:47.809Z,28.61
2022-11-19T01:17:51.071Z,28.60
2022-11-19T01:20:55.995Z,28.62
2022-11-19T01:24:00.171Z,28.62
2022-11-19T01:27:03.795Z,28.63
2022-11-19T01:30:10.829Z,28.62
2022-11-19T01:33:17.707Z,28.61
2022-11-19T01:36:24.151Z,28.61
2022-11-19T01:39:28.687Z,28.63
2022-11-19T01:42:54.035Z,28.62
2022-11-19T01:45:58.904Z,28.61
2022-11-19T01:49:08.411Z,28.63
2022-11-19T01:52:12.512Z,28.62
2022-11-19T01:55:18.371Z,28.66
2022-11-19T01:58:26.356Z,28.70
2022-11-19T02:01:33.824Z,28.69
2022-11-19T02:04:37.790Z,28.69
2022-11-19T02:07:46.419Z,28.72
2022-11-19T02:11:14.984Z,28.72
2022-11-19T02:14:50.652Z,28.73
2022-11-19T02:18:20.447Z,28.75
2022-11-19T02:21:39.158Z,28.77
2022-11-19T02:24:54.036Z,28.78
2022-11-19T02:28:22.593Z,28.79
2022-11-19T02:31:40.294Z,28.78
2022-11-19T02:34:53.416Z,28.80
2022-11-19T02:38:16.766Z,28.79
2022-11-19T02:41:37.368Z,28.79
2022-11-19T02:45:02.290Z,28.77
2022-11-19T02:48:15.600Z,28.77
2022-11-19T02:51:20.199Z,28.72
2022-11-19T02:54:23.943Z,28.73
2022-11-19T02:57:27.666Z,28.75
2022-11-19T03:01:01.626Z,28.77
2022-11-19T03:04:29.664Z,28.75
2022-11-19T03:07:33.114Z,28.73
2022-11-19T03:10:49.724Z,28.78
2022-11-19T03:14:19.779Z,28.78
2022-11-19T03:17:36.313Z,28.74
2022-11-19T03:20:46.607Z,28.75
2022-11-19T03:24:00.052Z,28.77
2022-11-19T03:27:10.972Z,28.81
2022-11-19T03:30:17.565Z,28.81
2022-11-19T03:33:27.381Z,28.83
2022-11-19T03:36:37.836Z,28.80
2022-11-19T03:39:44.621Z,28.79
2022-11-19T03:42:54.841Z,28.75
2022-11-19T03:46:03.310Z,28.77
2022-11-19T03:49:10.737Z,28.80
2022-11-19T03:52:19.570Z,28.84
2022-11-19T03:55:33.201Z,28.85
2022-11-19T03:58:40.401Z,28.90
2022-11-19T04:01:49.374Z,28.95
2022-11-19T04:04:52.695Z,28.83
2022-11-19T04:07:57.862Z,28.85
2022-11-19T04:14:04.005Z,28.97
2022-11-19T04:17:07.344Z,28.91
2022-11-19T04:20:11.844Z,28.98
2022-11-19T04:23:16.643Z,29.04
2022-11-19T04:26:20.557Z,29.02
2022-11-19T04:29:23.780Z,29.01
2022-11-19T04:32:27.886Z,29.03
2022-11-19T04:35:31.139Z,29.00
2022-11-19T04:38:36.162Z,29.05
2022-11-19T04:41:40.919Z,29.00
2022-11-19T04:44:44.537Z,29.02
2022-11-19T04:47:47.809Z,29.01
2022-11-19T04:50:51.998Z,28.87
2022-11-19T04:53:57.059Z,28.87
2022-11-19T04:57:01.008Z,28.88
2022-11-19T05:00:05.805Z,28.90
2022-11-19T05:03:09.485Z,28.88
2022-11-19T05:06:12.707Z,28.88
2022-11-19T05:09:18.223Z,28.90
2022-11-19T05:12:21.874Z,28.85
2022-11-19T05:15:25.823Z,28.83
2022-11-19T05:18:29.471Z,28.78
2022-11-19T05:21:33.253Z,28.73
2022-11-19T05:24:37.985Z,28.69
2022-11-19T05:27:42.133Z,28.63
2022-11-19T05:30:45.587Z,28.62
2022-11-19T05:33:49.287Z,28.58
2022-11-19T05:36:52.725Z,28.55
2022-11-19T05:39:57.632Z,28.54
2022-11-19T05:43:06.244Z,28.55
2022-11-19T05:46:09.879Z,28.50
2022-11-19T05:49:13.190Z,28.51
2022-11-19T05:52:17.099Z,28.49
2022-11-19T05:55:22.080Z,28.51
2022-11-19T05:58:25.831Z,28.23
2022-11-19T06:01:30.946Z,27.86
2022-11-19T06:04:34.636Z,27.69
2022-11-19T06:07:38.078Z,27.61
2022-11-19T06:10:43.354Z,27.58
2022-11-19T06:13:46.564Z,27.56
2022-11-19T06:16:51.370Z,27.61
2022-11-19T06:19:54.619Z,27.63
2022-11-19T06:22:58.971Z,27.72
2022-11-19T06:26:03.599Z,27.81
2022-11-19T06:29:08.287Z,27.89
2022-11-19T06:32:11.592Z,27.96
2022-11-19T06:35:15.354Z,28.03
2022-11-19T06:38:18.709Z,28.12
2022-11-19T06:41:24.116Z,28.23
2022-11-19T06:44:27.311Z,28.30
2022-11-19T06:47:32.025Z,28.36
2022-11-19T06:50:35.294Z,28.40
2022-11-19T06:53:39.547Z,28.44
2022-11-19T06:56:44.224Z,28.51
2022-11-19T06:59:48.118Z,28.57
2022-11-19T07:02:51.362Z,28.60
2022-11-19T07:06:00.416Z,28.63
2022-11-19T07:09:03.638Z,28.64
2022-11-19T07:12:09.946Z,28.73
2022-11-19T07:15:13.399Z,28.81
2022-11-19T07:18:17.081Z,28.91
2022-11-19T07:21:20.380Z,29.03
2022-11-19T07:24:23.981Z,29.23
2022-11-19T07:27:28.675Z,29.50
2022-11-19T07:30:32.611Z,29.72
2022-11-19T07:33:39.010Z,29.93
2022-11-19T07:36:42.636Z,30.05
2022-11-19T07:39:46.983Z,30.23
2022-11-19T07:42:53.441Z,30.37
2022-11-19T07:45:56.633Z,30.48
2022-11-19T07:49:01.090Z,30.54
2022-11-19T07:52:04.630Z,30.59
2022-11-19T07:55:09.835Z,30.55
2022-11-19T07:58:15.622Z,30.42
2022-11-19T08:01:21.774Z,30.18
2022-11-19T08:04:25.064Z,29.87
2022-11-19T08:07:28.920Z,29.51
2022-11-19T08:10:32.129Z,29.18
2022-11-19T08:13:39.222Z,28.92
2022-11-19T08:17:00.181Z,28.65
2022-11-19T08:20:04.238Z,28.37
2022-11-19T08:23:07.917Z,28.15
2022-11-19T08:26:13.489Z,27.97
2022-11-19T08:29:21.363Z,27.87
2022-11-19T08:32:25.504Z,27.75
2022-11-19T08:35:29.146Z,27.64
2022-11-19T08:38:38.266Z,27.56
2022-11-19T08:41:59.368Z,27.47
2022-11-19T08:45:05.819Z,27.39
2022-11-19T08:48:10.418Z,27.33
2022-11-19T08:51:16.624Z,27.27
2022-11-19T08:54:20.148Z,27.17
2022-11-19T08:57:25.032Z,27.05
2022-11-19T09:00:31.150Z,26.98
2022-11-19T09:03:34.845Z,26.83
2022-11-19T09:06:38.110Z,26.84
2022-11-19T09:09:42.114Z,26.83
2022-11-19T09:12:45.831Z,26.84
2022-11-19T09:15:51.126Z,26.86
2022-11-19T09:18:54.898Z,26.76
2022-11-19T09:21:58.775Z,26.73
2022-11-19T09:25:02.098Z,26.71
2022-11-19T09:28:06.066Z,26.71
2022-11-19T09:31:14.891Z,26.78
2022-11-19T09:34:19.293Z,26.87
2022-11-19T09:37:23.010Z,27.00
2022-11-19T09:40:27.020Z,26.98
2022-11-19T09:43:48.728Z,27.04
2022-11-19T09:47:09.446Z,27.07
2022-11-19T09:50:20.276Z,27.11
2022-11-19T09:53:25.190Z,27.24
2022-11-19T09:56:36.051Z,27.43
2022-11-19T09:59:42.599Z,27.55
2022-11-19T10:02:47.327Z,27.58
2022-11-19T10:06:10.935Z,27.51
2022-11-19T10:09:57.181Z,27.34
2022-11-19T10:13:38.118Z,27.11
2022-11-19T10:16:58.610Z,26.85
2022-11-19T10:20:22.022Z,26.57
2022-11-19T10:23:43.654Z,26.25
2022-11-19T10:27:01.100Z,25.93
2022-11-19T10:30:16.556Z,25.65
2022-11-19T10:33:29.021Z,25.39
2022-11-19T10:36:42.809Z,25.16
2022-11-19T10:39:55.089Z,24.93
2022-11-19T10:43:09.223Z,24.76
2022-11-19T10:46:17.912Z,24.66
2022-11-19T10:49:21.764Z,24.63
2022-11-19T10:52:32.657Z,24.70
2022-11-19T10:55:41.930Z,24.72
2022-11-19T10:58:51.261Z,24.73
2022-11-19T11:02:01.103Z,24.66
2022-11-19T11:05:11.009Z,24.59
2022-11-19T11:09:44.879Z,24.31
2022-11-19T11:13:06.036Z,24.05
2022-11-19T11:16:14.517Z,23.84
2022-11-19T11:19:21.015Z,23.69
2022-11-19T11:22:25.043Z,23.54
2022-11-19T11:25:30.579Z,23.45
2022-11-19T11:28:34.653Z,23.32
2022-11-19T11:31:42.902Z,23.23
2022-11-19T11:34:46.100Z,23.10
2022-11-19T11:37:53.992Z,23.06
2022-11-19T11:44:35.938Z,22.90
2022-11-19T11:47:40.935Z,22.84
2022-11-19T11:50:48.077Z,22.85
2022-11-19T11:54:05.505Z,22.88
2022-11-19T11:57:19.054Z,22.88
2022-11-19T12:00:39.791Z,22.92
2022-11-19T12:03:55.978Z,22.96
2022-11-19T12:07:16.372Z,22.98
2022-11-19T12:10:30.012Z,23.03
2022-11-19T12:13:56.418Z,23.09
2022-11-19T12:17:24.382Z,23.12
2022-11-19T12:20:40.544Z,23.16
2022-11-19T12:24:03.589Z,23.22
2022-11-19T12:27:24.699Z,23.25
2022-11-19T12:30:43.371Z,23.27
2022-11-19T12:34:09.322Z,23.33
2022-11-19T12:37:58.110Z,23.38
2022-11-19T12:41:34.812Z,23.37
2022-11-19T12:44:54.000Z,23.39
2022-11-19T12:48:43.734Z,23.43
2022-11-19T12:52:00.288Z,23.38
2022-11-19T12:55:19.630Z,23.38
2022-11-19T12:58:40.832Z,23.39
2022-11-19T13:01:51.926Z,23.37
2022-11-19T13:05:04.963Z,23.38
2022-11-19T13:08:19.431Z,23.36
2022-11-19T13:11:36.330Z,23.36
2022-11-19T13:14:44.545Z,23.35
2022-11-19T13:17:53.769Z,23.35
2022-11-19T13:21:04.220Z,23.37
2022-11-19T13:24:26.447Z,23.36
2022-11-19T13:27:33.135Z,23.31
2022-11-19T13:30:37.567Z,23.32
2022-11-19T13:33:51.024Z,23.35
2022-11-19T13:37:05.966Z,23.32
2022-11-19T13:40:23.404Z,23.30
2022-11-19T13:43:45.496Z,23.24
2022-11-19T13:46:56.044Z,23.22
2022-11-19T13:50:08.153Z,23.22
2022-11-19T13:53:24.684Z,23.23
2022-11-19T13:56:42.034Z,23.23
2022-11-19T13:59:49.229Z,23.17
2022-11-19T14:03:31.133Z,23.19
2022-11-19T14:07:14.926Z,23.16
2022-11-19T14:10:31.499Z,23.10
2022-11-19T14:14:00.086Z,23.11
2022-11-19T14:17:38.319Z,23.09
2022-11-19T14:21:03.069Z,23.02
2022-11-19T14:25:13.474Z,23.06
2022-11-19T14:28:44.972Z,23.00
2022-11-19T14:32:20.137Z,23.01
2022-11-19T14:35:36.593Z,22.97
2022-11-19T14:38:49.233Z,22.97
2022-11-19T14:42:14.773Z,23.01
2022-11-19T14:45:23.453Z,23.02
2022-11-19T14:48:26.776Z,23.06
2022-11-19T14:51:37.071Z,23.18
2022-11-19T14:54:45.895Z,23.23
2022-11-19T14:58:01.679Z,23.33
2022-11-19T15:01:20.804Z,23.40
2022-11-19T15:04:40.837Z,23.41
2022-11-19T15:07:54.318Z,23.45
2022-11-19T15:11:09.558Z,23.51
2022-11-19T15:15:02.500Z,23.68
2022-11-19T15:19:12.362Z,23.94
2022-11-19T15:22:47.347Z,24.05
2022-11-19T15:26:06.895Z,24.10
2022-11-19T15:29:26.136Z,24.12
2022-11-19T15:32:53.359Z,24.13
2022-11-19T15:36:18.749Z,24.15
2022-11-19T15:39:32.918Z,24.12
2022-11-19T15:42:46.111Z,24.13
2022-11-19T15:46:01.142Z,24.10
2022-11-19T15:49:15.120Z,24.08
2022-11-19T15:52:28.440Z,24.07
2022-11-19T15:55:33.267Z,24.01
2022-11-19T15:58:43.165Z,24.02
2022-11-19T16:01:59.471Z,23.99
2022-11-19T16:05:03.997Z,23.94
2022-11-19T16:08:17.018Z,23.97
2022-11-19T16:11:41.942Z,23.92
2022-11-19T16:15:17.500Z,23.88
2022-11-19T16:18:21.488Z,23.79
2022-11-19T16:21:32.326Z,23.82
2022-11-19T16:24:55.656Z,23.80
2022-11-19T16:28:03.442Z,23.76
2022-11-19T16:31:07.653Z,23.76
2022-11-19T16:34:22.445Z,23.82
2022-11-19T16:37:26.931Z,23.76
2022-11-19T16:40:53.207Z,23.80
2022-11-19T16:43:58.744Z,23.77
2022-11-19T16:47:07.872Z,23.81
2022-11-19T16:50:32.005Z,23.81
2022-11-19T16:53:47.309Z,23.81
2022-11-19T16:56:52.598Z,23.78
2022-11-19T16:59:59.586Z,23.81
2022-11-19T17:03:18.909Z,23.80
2022-11-19T17:06:25.654Z,23.80
2022-11-19T17:09:44.451Z,23.86
2022-11-19T17:12:55.340Z,23.87
2022-11-19T17:16:19.193Z,23.91
2022-11-19T17:19:28.208Z,23.86
2022-11-19T17:22:36.741Z,23.86
2022-11-19T17:25:48.794Z,23.86
2022-11-19T17:29:02.259Z,23.85
2022-11-19T17:32:06.249Z,23.79
2022-11-19T17:35:35.176Z,23.78
2022-11-19T17:38:38.740Z,23.74
2022-11-19T17:42:03.740Z,23.76
2022-11-19T17:45:11.164Z,23.70
2022-11-19T17:48:25.338Z,23.60
2022-11-19T17:51:28.869Z,23.42
2022-11-19T17:54:33.047Z,23.31
2022-11-19T17:57:41.258Z,23.21
2022-11-19T18:00:48.084Z,23.17
2022-11-19T18:03:52.280Z,23.12
2022-11-19T18:06:56.053Z,23.09
2022-11-19T18:09:59.431Z,23.07
2022-11-19T18:13:03.206Z,23.04
2022-11-19T18:16:15.440Z,23.06
2022-11-19T18:19:26.490Z,23.00
2022-11-19T18:22:30.353Z,22.93
2022-11-19T18:25:34.182Z,22.93
2022-11-19T18:28:37.787Z,22.91
2022-11-19T18:31:47.417Z,22.94
2022-11-19T18:34:50.823Z,22.87
2022-11-19T18:37:55.664Z,22.87
2022-11-19T18:40:59.129Z,22.83
2022-11-19T18:44:20.294Z,22.87
2022-11-19T18:47:26.309Z,22.97
2022-11-19T18:50:30.548Z,22.99
2022-11-19T18:53:33.959Z,23.07
2022-11-19T18:56:38.093Z,23.16
2022-11-19T18:59:41.890Z,23.27
2022-11-19T19:02:47.470Z,23.47
2022-11-19T19:05:50.934Z,23.62
2022-11-19T19:08:55.021Z,23.74
2022-11-19T19:12:15.741Z,23.83
2022-11-19T19:15:19.689Z,23.87
2022-11-19T19:18:24.742Z,23.93
2022-11-19T19:21:28.859Z,23.94
2022-11-19T19:24:32.536Z,23.93
2022-11-19T19:27:36.648Z,23.87
2022-11-19T19:30:41.847Z,23.79
2022-11-19T19:33:47.187Z,23.79
2022-11-19T19:36:53.370Z,23.75
2022-11-19T19:39:57.414Z,23.79
2022-11-19T19:43:03.151Z,23.83
2022-11-19T19:46:09.930Z,23.84
2022-11-19T19:49:14.773Z,23.82
2022-11-19T19:52:18.374Z,23.76
2022-11-19T19:55:21.816Z,23.69
2022-11-19T19:58:28.202Z,23.65
2022-11-19T20:01:34.986Z,23.61
2022-11-19T20:04:40.185Z,23.59
2022-11-19T20:07:43.488Z,23.53
2022-11-19T20:10:47.168Z,23.49
2022-11-19T20:13:51.208Z,23.49
2022-11-19T20:16:54.966Z,23.55
2022-11-19T20:19:59.645Z,23.64
2022-11-19T20:23:03.604Z,23.68
2022-11-19T20:26:11.619Z,23.72
2022-11-19T20:29:17.763Z,23.72
2022-11-19T20:32:21.350Z,23.72
2022-11-19T20:35:26.593Z,23.72
2022-11-19T20:38:30.453Z,23.69
2022-11-19T20:41:52.074Z,23.64
2022-11-19T20:44:55.539Z,23.58
2022-11-19T20:47:59.129Z,23.55
2022-11-19T20:51:04.394Z,23.56
2022-11-19T20:54:09.194Z,23.53
2022-11-19T20:57:12.769Z,23.48
2022-11-19T21:00:18.994Z,23.45
2022-11-19T21:03:22.876Z,23.42
2022-11-19T21:06:31.147Z,23.41
2022-11-19T21:09:34.710Z,23.35
2022-11-19T21:12:58.466Z,23.34
2022-11-19T21:16:08.073Z,23.33
2022-11-19T21:19:14.357Z,23.29
2022-11-19T21:22:19.324Z,23.28
2022-11-19T21:25:23.301Z,23.23
2022-11-19T21:28:26.903Z,23.21
2022-11-19T21:31:39.667Z,23.23
2022-11-19T21:34:43.327Z,23.16
2022-11-19T21:37:48.409Z,23.07
2022-11-19T21:40:52.583Z,22.96
2022-11-19T21:43:56.328Z,22.81
2022-11-19T21:46:59.761Z,22.67
2022-11-19T21:50:03.728Z,22.49
2022-11-19T21:53:12.701Z,22.35
2022-11-19T21:56:16.406Z,22.16
2022-11-19T21:59:20.202Z,22.00
2022-11-19T22:02:24.044Z,21.84
2022-11-19T22:05:28.711Z,21.70
2022-11-19T22:08:34.996Z,21.55
2022-11-19T22:11:38.277Z,21.42
2022-11-19T22:14:42.031Z,21.26
2022-11-19T22:17:45.770Z,21.14
2022-11-19T22:20:50.540Z,21.03
2022-11-19T22:23:55.539Z,20.93
2022-11-19T22:26:59.164Z,20.80
2022-11-19T22:30:05.833Z,20.69
2022-11-19T22:33:09.994Z,20.56
2022-11-19T22:36:13.546Z,20.45
2022-11-19T22:39:19.859Z,20.37
2022-11-19T22:42:23.427Z,20.28
2022-11-19T22:45:27.079Z,20.19
2022-11-19T22:48:31.482Z,20.12
2022-11-19T22:51:35.435Z,20.06
2022-11-19T22:54:41.782Z,20.03
2022-11-19T22:57:45.557Z,19.95
2022-11-19T23:00:51.005Z,19.93
2022-11-19T23:03:56.298Z,19.90
2022-11-19T23:06:59.769Z,19.85
2022-11-19T23:10:05.133Z,19.85
2022-11-19T23:13:30.067Z,19.87
2022-11-19T23:16:33.577Z,19.86
2022-11-19T23:19:38.815Z,19.86
2022-11-19T23:22:42.247Z,19.83
2022-11-19T23:25:47.001Z,19.81
2022-11-19T23:28:51.520Z,19.78
2022-11-19T23:31:54.802Z,19.76
2022-11-19T23:34:58.399Z,19.75
2022-11-19T23:38:01.953Z,19.74
2022-11-19T23:41:09.906Z,19.74
2022-11-19T23:44:13.901Z,19.71
2022-11-19T23:47:17.526Z,19.68
2022-11-19T23:50:20.765Z,19.65
2022-11-19T23:53:24.337Z,19.65
2022-11-19T23:56:31.956Z,19.66
2022-11-19T23:59:36.921Z,19.63
